Weather at Rinkenberger Restricted Landing Area

Public forecast

Using degrees Fahrenheit for public forecast. Weather courtesy of forecast.io.

Closest aviation weather report (METAR) to Rinkenberger Restricted Landing Area

Closest report is Marshall County Airport, 16.4 nm (30.4 km) SE. Retrieved 2021/08/02 10:55 UTC (11 minutes ago):

KC75 021055Z AUTO 00000KT 4SM CLR 12/12 A3016 RMK AO2 T01200117 PWINO

Closest aviation forecast (TAF) to Rinkenberger Restricted Landing Area

Closest forecast is General Wayne A. Downing Peoria International Airport, 34.2 nm (63.4 km) S. Retrieved 2021/08/02 06:22 UTC (5 hours ago):

TAF KPIA 020520Z 0206/0306 06004KT P6SM SCT045